TimeEDT,TemperatureF,Dew PointF,Humidity,Sea Level PressureIn,VisibilityMPH,Wind Direction,Wind SpeedMPH,Gust SpeedMPH,PrecipitationIn,Events,Conditions,WindDirDegrees,DateUTC
12:51 AM,63.0,60.1,90,30.08,10.0,Calm,Calm,-,N/A,,Clear,0,2013-08-11 04:51:00
1:51 AM,61.0,59.0,93,30.09,10.0,NW,3.5,-,N/A,,Clear,320,2013-08-11 05:51:00
2:51 AM,60.1,57.0,90,30.10,10.0,Calm,Calm,-,N/A,,Clear,0,2013-08-11 06:51:00
3:51 AM,60.1,57.0,90,30.10,10.0,Calm,Calm,-,N/A,,Clear,0,2013-08-11 07:51:00
4:51 AM,60.1,57.0,90,30.10,10.0,Calm,Calm,-,N/A,,Clear,0,2013-08-11 08:51:00
5:51 AM,57.9,55.9,93,30.12,10.0,North,3.5,-,N/A,,Clear,350,2013-08-11 09:51:00
6:51 AM,60.1,57.0,90,30.13,10.0,Calm,Calm,-,N/A,,Partly Cloudy,0,2013-08-11 10:51:00
7:51 AM,64.0,59.0,84,30.12,10.0,Calm,Calm,-,N/A,,Clear,0,2013-08-11 11:51:00
8:51 AM,66.0,57.0,73,30.14,10.0,NE,4.6,-,N/A,,Mostly Cloudy,50,2013-08-11 12:51:00
9:51 AM,70.0,53.1,55,30.14,10.0,ENE,4.6,-,N/A,,Overcast,70,2013-08-11 13:51:00
10:51 AM,71.1,55.9,59,30.16,10.0,Calm,Calm,-,N/A,,Overcast,0,2013-08-11 14:51:00
11:51 AM,73.0,55.0,53,30.14,10.0,Calm,Calm,-,N/A,,Overcast,0,2013-08-11 15:51:00
12:51 PM,75.9,55.9,50,30.11,10.0,Calm,Calm,-,N/A,,Mostly Cloudy,0,2013-08-11 16:51:00
1:51 PM,78.1,55.9,46,30.10,10.0,SW,4.6,-,N/A,,Scattered Clouds,220,2013-08-11 17:51:00
2:51 PM,79.0,57.0,47,30.08,10.0,NNW,3.5,-,N/A,,Scattered Clouds,340,2013-08-11 18:51:00
3:51 PM,80.1,60.1,50,30.06,10.0,Variable,3.5,-,N/A,,Scattered Clouds,0,2013-08-11 19:51:00
4:51 PM,80.1,63.0,56,30.05,10.0,SW,4.6,-,N/A,,Clear,230,2013-08-11 20:51:00
5:51 PM,79.0,64.0,60,30.04,10.0,NW,5.8,-,N/A,,Mostly Cloudy,310,2013-08-11 21:51:00
6:51 PM,78.1,64.9,64,30.03,10.0,Calm,Calm,-,N/A,,Mostly Cloudy,0,2013-08-11 22:51:00
7:51 PM,77.0,64.0,64,30.03,10.0,Calm,Calm,-,N/A,,Mostly Cloudy,0,2013-08-11 23:51:00
8:51 PM,73.9,66.0,76,30.04,10.0,ENE,3.5,-,N/A,,Overcast,60,2013-08-12 00:51:00
9:51 PM,75.0,66.0,73,30.04,10.0,SE,3.5,-,N/A,,Mostly Cloudy,140,2013-08-12 01:51:00
10:51 PM,73.0,68.0,84,30.05,10.0,South,5.8,-,0.00,Rain,Light Rain,180,2013-08-12 02:51:00
11:51 PM,70.0,68.0,93,30.04,10.0,SW,3.5,-,0.00,,Scattered Clouds,230,2013-08-12 03:51:00